sensor_id;sensor_type;location;lat;lon;timestamp;temperature;humidity
39021;DHT22;25188;51.958;5.842;2024-01-30T00:01:39;9.20;95.20
39021;DHT22;25188;51.958;5.842;2024-01-30T00:04:05;9.20;95.20
39021;DHT22;25188;51.958;5.842;2024-01-30T00:06:31;9.20;95.20
39021;DHT22;25188;51.958;5.842;2024-01-30T00:08:56;9.20;95.20
39021;DHT22;25188;51.958;5.842;2024-01-30T00:11:22;9.10;95.30
39021;DHT22;25188;51.958;5.842;2024-01-30T00:13:48;9.10;95.30
39021;DHT22;25188;51.958;5.842;2024-01-30T00:16:23;9.10;95.50
39021;DHT22;25188;51.958;5.842;2024-01-30T00:18:52;9.10;95.40
39021;DHT22;25188;51.958;5.842;2024-01-30T00:21:19;9.00;95.50
39021;DHT22;25188;51.958;5.842;2024-01-30T00:23:44;9.10;95.60
39021;DHT22;25188;51.958;5.842;2024-01-30T00:26:10;9.10;95.50
39021;DHT22;25188;51.958;5.842;2024-01-30T00:28:37;9.00;95.70
39021;DHT22;25188;51.958;5.842;2024-01-30T00:31:03;9.00;95.60
39021;DHT22;25188;51.958;5.842;2024-01-30T00:33:28;9.00;95.60
39021;DHT22;25188;51.958;5.842;2024-01-30T00:35:54;9.00;95.70
39021;DHT22;25188;51.958;5.842;2024-01-30T00:38:21;9.00;95.80
39021;DHT22;25188;51.958;5.842;2024-01-30T00:40:47;9.00;95.80
39021;DHT22;25188;51.958;5.842;2024-01-30T00:43:12;9.00;96.10
39021;DHT22;25188;51.958;5.842;2024-01-30T00:45:38;8.90;95.80
39021;DHT22;25188;51.958;5.842;2024-01-30T00:48:04;8.90;95.80
39021;DHT22;25188;51.958;5.842;2024-01-30T00:50:29;8.90;95.80
39021;DHT22;25188;51.958;5.842;2024-01-30T00:52:55;8.90;95.90
39021;DHT22;25188;51.958;5.842;2024-01-30T00:55:21;8.90;95.90
39021;DHT22;25188;51.958;5.842;2024-01-30T00:57:46;8.90;96.00
39021;DHT22;25188;51.958;5.842;2024-01-30T01:00:13;8.90;96.00
39021;DHT22;25188;51.958;5.842;2024-01-30T01:02:42;8.90;96.10
39021;DHT22;25188;51.958;5.842;2024-01-30T01:05:08;8.90;96.10
39021;DHT22;25188;51.958;5.842;2024-01-30T01:07:34;8.90;96.20
39021;DHT22;25188;51.958;5.842;2024-01-30T01:09:59;8.80;96.20
39021;DHT22;25188;51.958;5.842;2024-01-30T01:12:25;8.80;96.30
39021;DHT22;25188;51.958;5.842;2024-01-30T01:14:51;8.80;96.30
39021;DHT22;25188;51.958;5.842;2024-01-30T01:17:16;8.90;96.30
39021;DHT22;25188;51.958;5.842;2024-01-30T01:19:44;8.90;96.40
39021;DHT22;25188;51.958;5.842;2024-01-30T01:22:09;8.80;96.40
39021;DHT22;25188;51.958;5.842;2024-01-30T01:24:36;8.80;96.40
39021;DHT22;25188;51.958;5.842;2024-01-30T01:27:02;8.90;96.40
39021;DHT22;25188;51.958;5.842;2024-01-30T01:29:27;8.80;96.40
39021;DHT22;25188;51.958;5.842;2024-01-30T01:31:56;8.80;96.40
39021;DHT22;25188;51.958;5.842;2024-01-30T01:34:22;8.80;96.50
39021;DHT22;25188;51.958;5.842;2024-01-30T01:36:49;8.80;96.50
39021;DHT22;25188;51.958;5.842;2024-01-30T01:39:15;8.80;96.50
39021;DHT22;25188;51.958;5.842;2024-01-30T01:41:41;8.80;96.60
39021;DHT22;25188;51.958;5.842;2024-01-30T01:44:07;8.80;96.70
39021;DHT22;25188;51.958;5.842;2024-01-30T01:46:33;8.80;96.70
39021;DHT22;25188;51.958;5.842;2024-01-30T01:49:01;8.80;96.70
39021;DHT22;25188;51.958;5.842;2024-01-30T01:51:28;8.80;96.70
39021;DHT22;25188;51.958;5.842;2024-01-30T01:53:55;8.80;96.70
39021;DHT22;25188;51.958;5.842;2024-01-30T01:56:23;8.80;96.70
39021;DHT22;25188;51.958;5.842;2024-01-30T01:58:50;8.80;96.70
39021;DHT22;25188;51.958;5.842;2024-01-30T02:01:18;8.80;96.70
39021;DHT22;25188;51.958;5.842;2024-01-30T02:03:46;8.80;96.80
39021;DHT22;25188;51.958;5.842;2024-01-30T02:06:15;8.80;96.80
39021;DHT22;25188;51.958;5.842;2024-01-30T02:08:43;8.80;96.80
39021;DHT22;25188;51.958;5.842;2024-01-30T02:11:09;8.80;96.80
39021;DHT22;25188;51.958;5.842;2024-01-30T02:13:38;8.80;96.90
39021;DHT22;25188;51.958;5.842;2024-01-30T02:16:04;8.80;96.90
39021;DHT22;25188;51.958;5.842;2024-01-30T02:18:30;8.80;96.80
39021;DHT22;25188;51.958;5.842;2024-01-30T02:20:58;8.80;96.90
39021;DHT22;25188;51.958;5.842;2024-01-30T02:23:27;8.80;97.00
39021;DHT22;25188;51.958;5.842;2024-01-30T02:25:53;8.80;96.90
39021;DHT22;25188;51.958;5.842;2024-01-30T02:28:19;8.80;97.00
39021;DHT22;25188;51.958;5.842;2024-01-30T02:30:46;8.80;96.90
39021;DHT22;25188;51.958;5.842;2024-01-30T02:33:12;8.80;96.90
39021;DHT22;25188;51.958;5.842;2024-01-30T02:35:38;8.80;96.90
39021;DHT22;25188;51.958;5.842;2024-01-30T02:38:04;8.80;96.90
39021;DHT22;25188;51.958;5.842;2024-01-30T02:40:31;8.80;96.90
39021;DHT22;25188;51.958;5.842;2024-01-30T02:42:58;8.80;96.90
39021;DHT22;25188;51.958;5.842;2024-01-30T02:45:24;8.80;96.90
39021;DHT22;25188;51.958;5.842;2024-01-30T02:47:50;8.80;96.90
39021;DHT22;25188;51.958;5.842;2024-01-30T02:50:16;8.70;96.90
39021;DHT22;25188;51.958;5.842;2024-01-30T02:52:42;8.70;96.90
39021;DHT22;25188;51.958;5.842;2024-01-30T02:55:09;8.70;96.90
39021;DHT22;25188;51.958;5.842;2024-01-30T02:57:35;8.70;97.00
39021;DHT22;25188;51.958;5.842;2024-01-30T03:00:01;8.70;97.00
39021;DHT22;25188;51.958;5.842;2024-01-30T03:02:26;8.80;97.10
39021;DHT22;25188;51.958;5.842;2024-01-30T03:04:52;8.70;97.10
39021;DHT22;25188;51.958;5.842;2024-01-30T03:07:17;8.80;97.20
39021;DHT22;25188;51.958;5.842;2024-01-30T03:09:44;8.80;97.10
39021;DHT22;25188;51.958;5.842;2024-01-30T03:12:10;8.70;97.10
39021;DHT22;25188;51.958;5.842;2024-01-30T03:14:35;8.80;97.20
39021;DHT22;25188;51.958;5.842;2024-01-30T03:17:01;8.70;97.20
39021;DHT22;25188;51.958;5.842;2024-01-30T03:19:27;8.70;97.20
39021;DHT22;25188;51.958;5.842;2024-01-30T03:21:52;8.80;97.20
39021;DHT22;25188;51.958;5.842;2024-01-30T03:24:18;8.80;97.20
39021;DHT22;25188;51.958;5.842;2024-01-30T03:26:44;8.70;97.20
39021;DHT22;25188;51.958;5.842;2024-01-30T03:29:10;8.80;97.20
39021;DHT22;25188;51.958;5.842;2024-01-30T03:31:36;8.70;97.20
39021;DHT22;25188;51.958;5.842;2024-01-30T03:34:02;8.70;97.20
39021;DHT22;25188;51.958;5.842;2024-01-30T03:36:28;8.70;97.20
39021;DHT22;25188;51.958;5.842;2024-01-30T03:38:53;8.70;97.20
39021;DHT22;25188;51.958;5.842;2024-01-30T03:41:19;8.70;97.20
39021;DHT22;25188;51.958;5.842;2024-01-30T03:43:45;8.70;97.20
39021;DHT22;25188;51.958;5.842;2024-01-30T03:46:12;8.70;97.30
39021;DHT22;25188;51.958;5.842;2024-01-30T03:48:38;8.70;97.30
39021;DHT22;25188;51.958;5.842;2024-01-30T03:51:04;8.70;97.30
39021;DHT22;25188;51.958;5.842;2024-01-30T03:53:30;8.70;97.30
39021;DHT22;25188;51.958;5.842;2024-01-30T03:55:55;8.70;97.20
39021;DHT22;25188;51.958;5.842;2024-01-30T03:58:21;8.70;97.30
39021;DHT22;25188;51.958;5.842;2024-01-30T04:00:47;8.60;97.20
39021;DHT22;25188;51.958;5.842;2024-01-30T04:03:14;8.60;97.10
39021;DHT22;25188;51.958;5.842;2024-01-30T04:05:40;8.60;97.20
39021;DHT22;25188;51.958;5.842;2024-01-30T04:08:05;8.60;97.20
39021;DHT22;25188;51.958;5.842;2024-01-30T04:10:31;8.50;97.10
39021;DHT22;25188;51.958;5.842;2024-01-30T04:12:57;8.40;97.20
39021;DHT22;25188;51.958;5.842;2024-01-30T04:15:22;8.50;97.30
39021;DHT22;25188;51.958;5.842;2024-01-30T04:17:48;8.50;97.30
39021;DHT22;25188;51.958;5.842;2024-01-30T04:20:14;8.40;97.20
39021;DHT22;25188;51.958;5.842;2024-01-30T04:22:46;8.40;97.30
39021;DHT22;25188;51.958;5.842;2024-01-30T04:25:15;8.40;97.30
39021;DHT22;25188;51.958;5.842;2024-01-30T04:27:41;8.40;97.40
39021;DHT22;25188;51.958;5.842;2024-01-30T04:30:07;8.40;97.50
39021;DHT22;25188;51.958;5.842;2024-01-30T04:32:33;8.40;97.50
39021;DHT22;25188;51.958;5.842;2024-01-30T04:34:59;8.40;97.60
39021;DHT22;25188;51.958;5.842;2024-01-30T04:37:25;8.50;97.70
39021;DHT22;25188;51.958;5.842;2024-01-30T04:39:51;8.40;97.70
39021;DHT22;25188;51.958;5.842;2024-01-30T04:42:17;8.50;97.80
39021;DHT22;25188;51.958;5.842;2024-01-30T04:44:42;8.50;97.80
39021;DHT22;25188;51.958;5.842;2024-01-30T04:47:08;8.50;97.80
39021;DHT22;25188;51.958;5.842;2024-01-30T04:49:36;8.60;97.90
39021;DHT22;25188;51.958;5.842;2024-01-30T04:52:02;8.60;97.90
39021;DHT22;25188;51.958;5.842;2024-01-30T04:54:28;8.70;98.00
39021;DHT22;25188;51.958;5.842;2024-01-30T04:56:53;8.70;98.00
39021;DHT22;25188;51.958;5.842;2024-01-30T04:59:19;8.70;98.00
39021;DHT22;25188;51.958;5.842;2024-01-30T05:01:45;8.70;98.00
39021;DHT22;25188;51.958;5.842;2024-01-30T05:04:10;8.80;98.00
39021;DHT22;25188;51.958;5.842;2024-01-30T05:06:37;8.80;98.00
39021;DHT22;25188;51.958;5.842;2024-01-30T05:09:02;8.80;98.00
39021;DHT22;25188;51.958;5.842;2024-01-30T05:11:30;8.80;98.00
39021;DHT22;25188;51.958;5.842;2024-01-30T05:13:55;8.80;98.10
39021;DHT22;25188;51.958;5.842;2024-01-30T05:16:21;8.90;98.10
39021;DHT22;25188;51.958;5.842;2024-01-30T05:18:47;8.90;98.10
39021;DHT22;25188;51.958;5.842;2024-01-30T05:21:13;8.90;98.10
39021;DHT22;25188;51.958;5.842;2024-01-30T05:23:38;8.90;98.10
39021;DHT22;25188;51.958;5.842;2024-01-30T05:26:05;8.90;98.10
39021;DHT22;25188;51.958;5.842;2024-01-30T05:28:32;8.90;98.10
39021;DHT22;25188;51.958;5.842;2024-01-30T05:30:58;9.00;98.20
39021;DHT22;25188;51.958;5.842;2024-01-30T05:33:23;9.00;98.20
39021;DHT22;25188;51.958;5.842;2024-01-30T05:35:49;9.00;98.30
39021;DHT22;25188;51.958;5.842;2024-01-30T05:38:18;9.00;98.30
39021;DHT22;25188;51.958;5.842;2024-01-30T05:40:43;9.10;98.30
39021;DHT22;25188;51.958;5.842;2024-01-30T05:43:09;9.10;98.30
39021;DHT22;25188;51.958;5.842;2024-01-30T05:45:35;9.10;98.30
39021;DHT22;25188;51.958;5.842;2024-01-30T05:48:02;9.10;98.30
39021;DHT22;25188;51.958;5.842;2024-01-30T05:50:28;9.10;98.30
39021;DHT22;25188;51.958;5.842;2024-01-30T05:52:54;9.10;98.30
39021;DHT22;25188;51.958;5.842;2024-01-30T05:55:20;9.10;98.30
39021;DHT22;25188;51.958;5.842;2024-01-30T05:57:45;9.10;98.30
39021;DHT22;25188;51.958;5.842;2024-01-30T06:00:11;9.10;98.20
39021;DHT22;25188;51.958;5.842;2024-01-30T06:02:37;9.20;98.30
39021;DHT22;25188;51.958;5.842;2024-01-30T06:05:03;9.10;98.30
39021;DHT22;25188;51.958;5.842;2024-01-30T06:07:28;9.00;98.30
39021;DHT22;25188;51.958;5.842;2024-01-30T06:09:54;9.10;98.30
39021;DHT22;25188;51.958;5.842;2024-01-30T06:12:21;9.10;98.30
39021;DHT22;25188;51.958;5.842;2024-01-30T06:14:46;9.20;98.30
39021;DHT22;25188;51.958;5.842;2024-01-30T06:17:12;9.10;98.30
39021;DHT22;25188;51.958;5.842;2024-01-30T06:19:38;9.20;98.40
39021;DHT22;25188;51.958;5.842;2024-01-30T06:22:04;9.20;98.50
39021;DHT22;25188;51.958;5.842;2024-01-30T06:24:30;9.20;98.50
39021;DHT22;25188;51.958;5.842;2024-01-30T06:26:56;9.20;98.50
39021;DHT22;25188;51.958;5.842;2024-01-30T06:29:22;9.30;98.50
39021;DHT22;25188;51.958;5.842;2024-01-30T06:31:50;9.30;98.60
39021;DHT22;25188;51.958;5.842;2024-01-30T06:34:15;9.30;98.50
39021;DHT22;25188;51.958;5.842;2024-01-30T06:36:41;9.30;98.60
39021;DHT22;25188;51.958;5.842;2024-01-30T06:39:06;9.40;98.60
39021;DHT22;25188;51.958;5.842;2024-01-30T06:41:33;9.40;98.50
39021;DHT22;25188;51.958;5.842;2024-01-30T06:43:58;9.40;98.50
39021;DHT22;25188;51.958;5.842;2024-01-30T06:46:24;9.40;98.50
39021;DHT22;25188;51.958;5.842;2024-01-30T06:48:50;9.40;98.50
39021;DHT22;25188;51.958;5.842;2024-01-30T06:51:15;9.40;98.50
39021;DHT22;25188;51.958;5.842;2024-01-30T06:53:41;9.40;98.40
39021;DHT22;25188;51.958;5.842;2024-01-30T06:56:07;9.40;98.50
39021;DHT22;25188;51.958;5.842;2024-01-30T06:58:33;9.40;98.50
39021;DHT22;25188;51.958;5.842;2024-01-30T07:00:58;9.40;98.50
39021;DHT22;25188;51.958;5.842;2024-01-30T07:03:24;9.40;98.50
39021;DHT22;25188;51.958;5.842;2024-01-30T07:05:50;9.40;98.50
39021;DHT22;25188;51.958;5.842;2024-01-30T07:08:16;9.40;98.60
39021;DHT22;25188;51.958;5.842;2024-01-30T07:10:43;9.40;98.60
39021;DHT22;25188;51.958;5.842;2024-01-30T07:13:09;9.40;98.60
39021;DHT22;25188;51.958;5.842;2024-01-30T07:15:35;9.40;98.60
39021;DHT22;25188;51.958;5.842;2024-01-30T07:18:02;9.40;98.60
39021;DHT22;25188;51.958;5.842;2024-01-30T07:20:28;9.40;98.70
39021;DHT22;25188;51.958;5.842;2024-01-30T07:22:55;9.40;98.80
39021;DHT22;25188;51.958;5.842;2024-01-30T07:25:21;9.50;98.80
39021;DHT22;25188;51.958;5.842;2024-01-30T07:27:52;9.50;98.80
39021;DHT22;25188;51.958;5.842;2024-01-30T07:30:18;9.50;98.90
39021;DHT22;25188;51.958;5.842;2024-01-30T07:32:44;9.50;98.80
39021;DHT22;25188;51.958;5.842;2024-01-30T07:35:10;9.50;98.90
39021;DHT22;25188;51.958;5.842;2024-01-30T07:37:36;9.60;98.90
39021;DHT22;25188;51.958;5.842;2024-01-30T07:40:03;9.60;99.00
39021;DHT22;25188;51.958;5.842;2024-01-30T07:42:29;9.60;99.00
39021;DHT22;25188;51.958;5.842;2024-01-30T07:44:55;9.60;99.00
39021;DHT22;25188;51.958;5.842;2024-01-30T07:47:20;9.60;99.20
39021;DHT22;25188;51.958;5.842;2024-01-30T07:49:46;9.70;99.10
39021;DHT22;25188;51.958;5.842;2024-01-30T07:52:13;9.70;99.10
39021;DHT22;25188;51.958;5.842;2024-01-30T07:54:48;9.70;99.10
39021;DHT22;25188;51.958;5.842;2024-01-30T07:57:13;9.70;99.20
39021;DHT22;25188;51.958;5.842;2024-01-30T07:59:39;9.60;99.30
39021;DHT22;25188;51.958;5.842;2024-01-30T08:02:07;9.80;99.40
39021;DHT22;25188;51.958;5.842;2024-01-30T08:04:33;9.80;99.50
39021;DHT22;25188;51.958;5.842;2024-01-30T08:06:58;9.70;99.50
39021;DHT22;25188;51.958;5.842;2024-01-30T08:09:24;9.80;99.50
39021;DHT22;25188;51.958;5.842;2024-01-30T08:11:50;9.80;99.50
39021;DHT22;25188;51.958;5.842;2024-01-30T08:14:15;9.90;99.60
39021;DHT22;25188;51.958;5.842;2024-01-30T08:16:41;9.90;99.70
39021;DHT22;25188;51.958;5.842;2024-01-30T08:19:06;9.90;99.70
39021;DHT22;25188;51.958;5.842;2024-01-30T08:21:32;9.90;99.70
39021;DHT22;25188;51.958;5.842;2024-01-30T08:24:05;9.90;99.70
39021;DHT22;25188;51.958;5.842;2024-01-30T08:26:31;10.00;99.80
39021;DHT22;25188;51.958;5.842;2024-01-30T08:28:57;10.10;99.90
39021;DHT22;25188;51.958;5.842;2024-01-30T08:31:23;10.10;99.80
39021;DHT22;25188;51.958;5.842;2024-01-30T08:33:48;10.10;99.90
39021;DHT22;25188;51.958;5.842;2024-01-30T08:36:15;10.20;99.90
39021;DHT22;25188;51.958;5.842;2024-01-30T08:38:40;10.10;99.80
39021;DHT22;25188;51.958;5.842;2024-01-30T08:41:07;10.20;99.80
39021;DHT22;25188;51.958;5.842;2024-01-30T08:43:33;10.20;99.80
39021;DHT22;25188;51.958;5.842;2024-01-30T08:45:59;10.30;99.80
39021;DHT22;25188;51.958;5.842;2024-01-30T08:48:25;10.30;99.80
39021;DHT22;25188;51.958;5.842;2024-01-30T08:50:51;10.30;99.80
39021;DHT22;25188;51.958;5.842;2024-01-30T08:53:17;10.30;99.80
39021;DHT22;25188;51.958;5.842;2024-01-30T08:55:42;10.30;99.80
39021;DHT22;25188;51.958;5.842;2024-01-30T08:58:08;10.40;99.70
39021;DHT22;25188;51.958;5.842;2024-01-30T09:00:34;10.40;99.70
39021;DHT22;25188;51.958;5.842;2024-01-30T09:02:59;10.40;99.70
39021;DHT22;25188;51.958;5.842;2024-01-30T09:05:25;10.40;99.70
39021;DHT22;25188;51.958;5.842;2024-01-30T09:07:50;10.40;99.80
39021;DHT22;25188;51.958;5.842;2024-01-30T09:10:16;10.50;99.80
39021;DHT22;25188;51.958;5.842;2024-01-30T09:12:41;10.50;99.80
39021;DHT22;25188;51.958;5.842;2024-01-30T09:15:07;10.50;99.80
39021;DHT22;25188;51.958;5.842;2024-01-30T09:17:33;10.50;99.70
39021;DHT22;25188;51.958;5.842;2024-01-30T09:19:59;10.50;99.70
39021;DHT22;25188;51.958;5.842;2024-01-30T09:22:25;10.60;99.70
39021;DHT22;25188;51.958;5.842;2024-01-30T09:24:51;10.60;99.90
39021;DHT22;25188;51.958;5.842;2024-01-30T09:27:16;10.60;99.80
39021;DHT22;25188;51.958;5.842;2024-01-30T09:29:42;10.70;99.80
39021;DHT22;25188;51.958;5.842;2024-01-30T09:32:07;10.70;99.70
39021;DHT22;25188;51.958;5.842;2024-01-30T09:34:34;10.70;99.70
39021;DHT22;25188;51.958;5.842;2024-01-30T09:37:00;10.80;99.70
39021;DHT22;25188;51.958;5.842;2024-01-30T09:39:26;10.80;99.70
39021;DHT22;25188;51.958;5.842;2024-01-30T09:44:47;10.80;99.70
39021;DHT22;25188;51.958;5.842;2024-01-30T09:47:16;10.80;99.70
39021;DHT22;25188;51.958;5.842;2024-01-30T09:49:43;10.90;99.60
39021;DHT22;25188;51.958;5.842;2024-01-30T09:52:09;10.90;99.70
39021;DHT22;25188;51.958;5.842;2024-01-30T09:54:35;10.90;99.80
39021;DHT22;25188;51.958;5.842;2024-01-30T09:57:01;10.90;99.80
39021;DHT22;25188;51.958;5.842;2024-01-30T09:59:26;10.90;99.90
39021;DHT22;25188;51.958;5.842;2024-01-30T10:01:52;11.00;99.90
39021;DHT22;25188;51.958;5.842;2024-01-30T10:04:18;11.00;99.90
39021;DHT22;25188;51.958;5.842;2024-01-30T10:06:44;11.00;99.90
39021;DHT22;25188;51.958;5.842;2024-01-30T10:09:09;11.00;99.90
39021;DHT22;25188;51.958;5.842;2024-01-30T10:11:36;11.10;99.90
39021;DHT22;25188;51.958;5.842;2024-01-30T10:14:02;11.10;99.90
39021;DHT22;25188;51.958;5.842;2024-01-30T10:16:28;11.10;99.90
39021;DHT22;25188;51.958;5.842;2024-01-30T10:18:54;11.20;99.90
39021;DHT22;25188;51.958;5.842;2024-01-30T10:21:19;11.30;99.90
39021;DHT22;25188;51.958;5.842;2024-01-30T10:23:45;11.30;99.90
39021;DHT22;25188;51.958;5.842;2024-01-30T10:26:11;11.30;99.90
39021;DHT22;25188;51.958;5.842;2024-01-30T10:28:36;11.30;99.90
39021;DHT22;25188;51.958;5.842;2024-01-30T10:31:02;11.30;99.90
39021;DHT22;25188;51.958;5.842;2024-01-30T10:33:31;11.40;99.90
39021;DHT22;25188;51.958;5.842;2024-01-30T10:36:02;11.40;99.90
39021;DHT22;25188;51.958;5.842;2024-01-30T10:38:29;11.50;99.90
39021;DHT22;25188;51.958;5.842;2024-01-30T10:41:00;11.40;99.90
39021;DHT22;25188;51.958;5.842;2024-01-30T10:43:35;11.50;99.90
39021;DHT22;25188;51.958;5.842;2024-01-30T10:46:15;11.60;99.90
39021;DHT22;25188;51.958;5.842;2024-01-30T10:48:43;11.60;99.90
39021;DHT22;25188;51.958;5.842;2024-01-30T10:51:13;11.70;99.90
39021;DHT22;25188;51.958;5.842;2024-01-30T10:53:39;11.70;99.90
39021;DHT22;25188;51.958;5.842;2024-01-30T10:56:06;11.70;99.90
39021;DHT22;25188;51.958;5.842;2024-01-30T10:58:33;11.80;99.90
39021;DHT22;25188;51.958;5.842;2024-01-30T11:00:59;11.80;99.90
39021;DHT22;25188;51.958;5.842;2024-01-30T11:03:25;11.90;99.90
39021;DHT22;25188;51.958;5.842;2024-01-30T11:05:52;11.80;99.90
39021;DHT22;25188;51.958;5.842;2024-01-30T11:08:26;11.90;99.80
39021;DHT22;25188;51.958;5.842;2024-01-30T11:10:57;11.90;99.80
39021;DHT22;25188;51.958;5.842;2024-01-30T11:13:32;11.90;99.80
39021;DHT22;25188;51.958;5.842;2024-01-30T11:16:02;12.00;99.80
39021;DHT22;25188;51.958;5.842;2024-01-30T11:18:32;12.00;99.80
39021;DHT22;25188;51.958;5.842;2024-01-30T11:21:00;12.10;99.80
39021;DHT22;25188;51.958;5.842;2024-01-30T11:23:28;12.20;99.90
39021;DHT22;25188;51.958;5.842;2024-01-30T11:25:54;12.40;99.90
39021;DHT22;25188;51.958;5.842;2024-01-30T11:28:21;12.60;99.90
39021;DHT22;25188;51.958;5.842;2024-01-30T11:30:48;12.70;99.80
39021;DHT22;25188;51.958;5.842;2024-01-30T11:33:26;12.70;99.40
39021;DHT22;25188;51.958;5.842;2024-01-30T11:35:52;12.70;99.00
39021;DHT22;25188;51.958;5.842;2024-01-30T11:38:18;12.70;98.70
39021;DHT22;25188;51.958;5.842;2024-01-30T11:40:44;12.70;98.30
39021;DHT22;25188;51.958;5.842;2024-01-30T11:43:10;12.60;97.90
39021;DHT22;25188;51.958;5.842;2024-01-30T11:45:37;12.60;97.70
39021;DHT22;25188;51.958;5.842;2024-01-30T11:48:04;12.70;97.70
39021;DHT22;25188;51.958;5.842;2024-01-30T11:50:31;12.70;97.60
39021;DHT22;25188;51.958;5.842;2024-01-30T11:52:57;12.70;97.70
39021;DHT22;25188;51.958;5.842;2024-01-30T11:55:23;12.80;97.70
39021;DHT22;25188;51.958;5.842;2024-01-30T11:57:49;13.00;97.40
39021;DHT22;25188;51.958;5.842;2024-01-30T12:00:18;13.00;97.10
39021;DHT22;25188;51.958;5.842;2024-01-30T12:02:48;13.10;96.90
39021;DHT22;25188;51.958;5.842;2024-01-30T12:05:14;13.10;96.40
39021;DHT22;25188;51.958;5.842;2024-01-30T12:07:40;13.00;95.90
39021;DHT22;25188;51.958;5.842;2024-01-30T12:10:08;13.00;95.90
39021;DHT22;25188;51.958;5.842;2024-01-30T12:12:35;13.00;95.90
39021;DHT22;25188;51.958;5.842;2024-01-30T12:15:01;13.00;95.80
39021;DHT22;25188;51.958;5.842;2024-01-30T12:17:30;13.00;95.60
39021;DHT22;25188;51.958;5.842;2024-01-30T12:20:25;13.00;95.50
39021;DHT22;25188;51.958;5.842;2024-01-30T12:22:51;13.00;95.30
39021;DHT22;25188;51.958;5.842;2024-01-30T12:25:18;13.00;95.20
39021;DHT22;25188;51.958;5.842;2024-01-30T12:27:45;13.00;94.90
39021;DHT22;25188;51.958;5.842;2024-01-30T12:30:13;13.10;94.90
39021;DHT22;25188;51.958;5.842;2024-01-30T12:32:41;13.20;95.00
39021;DHT22;25188;51.958;5.842;2024-01-30T12:35:15;13.50;94.60
39021;DHT22;25188;51.958;5.842;2024-01-30T12:37:42;14.00;94.60
39021;DHT22;25188;51.958;5.842;2024-01-30T12:40:09;14.40;92.60
39021;DHT22;25188;51.958;5.842;2024-01-30T12:42:35;14.50;90.80
39021;DHT22;25188;51.958;5.842;2024-01-30T12:45:05;14.30;90.40
39021;DHT22;25188;51.958;5.842;2024-01-30T12:47:31;14.20;89.90
39021;DHT22;25188;51.958;5.842;2024-01-30T12:49:57;14.20;89.40
39021;DHT22;25188;51.958;5.842;2024-01-30T12:52:23;14.00;90.00
39021;DHT22;25188;51.958;5.842;2024-01-30T12:54:49;14.20;89.80
39021;DHT22;25188;51.958;5.842;2024-01-30T12:57:15;14.40;90.00
39021;DHT22;25188;51.958;5.842;2024-01-30T12:59:42;14.50;88.70
39021;DHT22;25188;51.958;5.842;2024-01-30T13:02:08;14.70;88.10
39021;DHT22;25188;51.958;5.842;2024-01-30T13:04:34;14.70;86.80
39021;DHT22;25188;51.958;5.842;2024-01-30T13:07:00;14.60;85.10
39021;DHT22;25188;51.958;5.842;2024-01-30T13:09:26;14.40;84.20
39021;DHT22;25188;51.958;5.842;2024-01-30T13:11:52;14.10;84.60
39021;DHT22;25188;51.958;5.842;2024-01-30T13:14:19;13.90;85.00
39021;DHT22;25188;51.958;5.842;2024-01-30T13:16:45;13.70;84.80
39021;DHT22;25188;51.958;5.842;2024-01-30T13:19:10;13.60;84.60
39021;DHT22;25188;51.958;5.842;2024-01-30T13:21:36;13.40;84.10
39021;DHT22;25188;51.958;5.842;2024-01-30T13:24:02;13.40;83.90
39021;DHT22;25188;51.958;5.842;2024-01-30T13:26:27;13.20;81.70
39021;DHT22;25188;51.958;5.842;2024-01-30T13:28:53;13.10;81.80
39021;DHT22;25188;51.958;5.842;2024-01-30T13:31:19;13.00;81.80
39021;DHT22;25188;51.958;5.842;2024-01-30T13:33:45;12.90;80.90
39021;DHT22;25188;51.958;5.842;2024-01-30T13:36:11;12.90;81.70
39021;DHT22;25188;51.958;5.842;2024-01-30T13:38:37;13.00;80.50
39021;DHT22;25188;51.958;5.842;2024-01-30T13:41:03;12.80;80.10
39021;DHT22;25188;51.958;5.842;2024-01-30T13:43:29;12.60;80.60
39021;DHT22;25188;51.958;5.842;2024-01-30T13:45:55;12.40;82.00
39021;DHT22;25188;51.958;5.842;2024-01-30T13:48:21;12.20;84.60
39021;DHT22;25188;51.958;5.842;2024-01-30T13:50:47;12.00;85.70
39021;DHT22;25188;51.958;5.842;2024-01-30T13:53:13;11.80;87.80
39021;DHT22;25188;51.958;5.842;2024-01-30T13:55:38;11.60;88.40
39021;DHT22;25188;51.958;5.842;2024-01-30T13:58:07;11.50;89.00
39021;DHT22;25188;51.958;5.842;2024-01-30T14:00:34;11.40;90.10
39021;DHT22;25188;51.958;5.842;2024-01-30T14:03:00;11.20;90.50
39021;DHT22;25188;51.958;5.842;2024-01-30T14:05:26;11.10;90.60
39021;DHT22;25188;51.958;5.842;2024-01-30T14:07:53;11.00;91.20
39021;DHT22;25188;51.958;5.842;2024-01-30T14:10:19;10.90;91.40
39021;DHT22;25188;51.958;5.842;2024-01-30T14:12:46;10.80;91.60
39021;DHT22;25188;51.958;5.842;2024-01-30T14:15:13;10.80;91.70
39021;DHT22;25188;51.958;5.842;2024-01-30T14:17:40;10.80;91.80
39021;DHT22;25188;51.958;5.842;2024-01-30T14:20:07;10.70;92.00
39021;DHT22;25188;51.958;5.842;2024-01-30T14:22:33;10.70;92.10
39021;DHT22;25188;51.958;5.842;2024-01-30T14:25:03;10.70;92.20
39021;DHT22;25188;51.958;5.842;2024-01-30T14:27:29;10.70;92.40
39021;DHT22;25188;51.958;5.842;2024-01-30T14:29:56;10.70;92.40
39021;DHT22;25188;51.958;5.842;2024-01-30T14:32:22;10.80;92.50
39021;DHT22;25188;51.958;5.842;2024-01-30T14:34:49;10.70;92.50
39021;DHT22;25188;51.958;5.842;2024-01-30T14:37:15;10.70;92.70
39021;DHT22;25188;51.958;5.842;2024-01-30T14:39:42;10.70;92.80
39021;DHT22;25188;51.958;5.842;2024-01-30T14:42:07;10.70;92.90
39021;DHT22;25188;51.958;5.842;2024-01-30T14:44:33;10.70;92.90
39021;DHT22;25188;51.958;5.842;2024-01-30T14:46:59;10.70;92.90
39021;DHT22;25188;51.958;5.842;2024-01-30T14:49:25;10.80;92.80
39021;DHT22;25188;51.958;5.842;2024-01-30T14:51:51;10.70;92.90
39021;DHT22;25188;51.958;5.842;2024-01-30T14:54:17;10.70;92.90
39021;DHT22;25188;51.958;5.842;2024-01-30T14:56:44;10.70;93.10
39021;DHT22;25188;51.958;5.842;2024-01-30T14:59:09;10.60;93.30
39021;DHT22;25188;51.958;5.842;2024-01-30T15:01:35;10.50;93.50
39021;DHT22;25188;51.958;5.842;2024-01-30T15:04:00;10.50;93.60
39021;DHT22;25188;51.958;5.842;2024-01-30T15:06:26;10.50;93.80
39021;DHT22;25188;51.958;5.842;2024-01-30T15:08:53;10.40;93.80
39021;DHT22;25188;51.958;5.842;2024-01-30T15:11:19;10.40;93.90
39021;DHT22;25188;51.958;5.842;2024-01-30T15:13:44;10.40;94.00
39021;DHT22;25188;51.958;5.842;2024-01-30T15:16:10;10.40;94.20
39021;DHT22;25188;51.958;5.842;2024-01-30T15:18:36;10.30;94.20
39021;DHT22;25188;51.958;5.842;2024-01-30T15:21:02;10.30;94.50
39021;DHT22;25188;51.958;5.842;2024-01-30T15:23:27;10.20;94.60
39021;DHT22;25188;51.958;5.842;2024-01-30T15:25:53;10.20;94.80
39021;DHT22;25188;51.958;5.842;2024-01-30T15:28:18;10.10;95.00
39021;DHT22;25188;51.958;5.842;2024-01-30T15:30:46;10.10;95.20
39021;DHT22;25188;51.958;5.842;2024-01-30T15:33:12;10.10;95.30
39021;DHT22;25188;51.958;5.842;2024-01-30T15:35:37;10.10;95.40
39021;DHT22;25188;51.958;5.842;2024-01-30T15:38:04;10.10;95.50